Time;durP1;ratioP1;P1;durP2;ratioP2;P2;SDS_P1;SDS_P2;PMS_P1;PMS_P2;Temp;Humidity;BMP_temperature;BMP_pressure;BME280_temperature;BME280_humidity;BME280_pressure;Samples;Min_cycle;Max_cycle;Signal;HPM_P1;HPM_P2
2023/06/26 00:08:36;;;;;;;6.07;3.42;;;;;;;;;;20999851;28;20513;-69
2023/06/26 00:18:37;;;;;;;7.18;2.00;;;;;;;;;;20999270;28;20071;-69
2023/06/26 00:28:38;;;;;;;7.82;2.10;;;;;;;;;;20997797;28;20554;-67
2023/06/26 00:38:39;;;;;;;3.47;1.80;;;;;;;;;;20996654;28;20099;-68
2023/06/26 00:48:42;;;;;;;3.83;1.50;;;;;;;;;;20996913;28;20127;-69
2023/06/26 00:58:43;;;;;;;3.88;1.65;;;;;;;;;;20997325;28;20079;-70
2023/06/26 01:08:45;;;;;;;4.50;3.08;;;;;;;;;;20999580;28;20410;-68
2023/06/26 01:18:48;;;;;;;11.32;7.00;;;;;;;;;;21013563;28;20123;-70
2023/06/26 01:28:50;;;;;;;12.27;8.32;;;;;;;;;;21012861;28;20059;-68
2023/06/26 01:38:51;;;;;;;4.72;2.05;;;;;;;;;;21010577;28;20053;-69
2023/06/26 01:49:01;;;;;;;4.03;2.45;;;;;;;;;;21011164;28;20044;-69
2023/06/26 01:59:05;;;;;;;3.45;2.00;;;;;;;;;;21010087;28;20397;-69
2023/06/26 02:09:07;;;;;;;4.68;2.85;;;;;;;;;;21009536;28;20053;-69
2023/06/26 02:19:08;;;;;;;7.10;4.30;;;;;;;;;;21006316;28;20102;-68
2023/06/26 02:29:09;;;;;;;14.85;10.25;;;;;;;;;;21007993;28;20409;-69
2023/06/26 02:39:11;;;;;;;8.15;5.20;;;;;;;;;;21008234;28;20132;-68
2023/06/26 02:49:12;;;;;;;8.82;5.78;;;;;;;;;;21006449;28;20089;-69
2023/06/26 02:59:13;;;;;;;5.13;2.60;;;;;;;;;;21005736;28;20074;-69
2023/06/26 03:09:14;;;;;;;8.60;5.68;;;;;;;;;;21003601;28;20048;-69
2023/06/26 03:19:15;;;;;;;4.43;2.38;;;;;;;;;;21003751;28;20040;-69
2023/06/26 03:29:17;;;;;;;6.47;2.30;;;;;;;;;;21003030;28;20048;-69
2023/06/26 03:39:18;;;;;;;2.92;2.10;;;;;;;;;;21000399;28;20083;-69
2023/06/26 03:49:19;;;;;;;3.72;2.20;;;;;;;;;;21001529;28;20383;-69
2023/06/26 03:59:20;;;;;;;3.45;2.20;;;;;;;;;;21000628;28;20532;-68
2023/06/26 04:09:21;;;;;;;8.10;5.45;;;;;;;;;;21000333;28;20409;-68
2023/06/26 04:19:22;;;;;;;2.55;2.08;;;;;;;;;;20998032;28;20048;-68
2023/06/26 04:29:27;;;;;;;5.70;3.65;;;;;;;;;;20997625;28;20130;-69
2023/06/26 04:39:28;;;;;;;4.18;2.97;;;;;;;;;;20997155;28;20084;-69
2023/06/26 04:49:29;;;;;;;5.28;2.65;;;;;;;;;;20996948;28;20045;-68
2023/06/26 04:59:30;;;;;;;4.47;2.72;;;;;;;;;;20997343;28;20115;-69
2023/06/26 05:09:32;;;;;;;4.68;2.38;;;;;;;;;;20996794;28;20494;-70
2023/06/26 05:19:33;;;;;;;3.47;2.30;;;;;;;;;;20996290;28;20044;-69
2023/06/26 05:29:34;;;;;;;4.32;2.83;;;;;;;;;;20996556;28;20054;-68
2023/06/26 05:39:35;;;;;;;5.32;2.83;;;;;;;;;;20994410;28;20483;-70
2023/06/26 05:49:36;;;;;;;4.95;2.65;;;;;;;;;;20995352;28;20036;-71
2023/06/26 05:59:41;;;;;;;9.70;3.05;;;;;;;;;;21004231;28;20043;-69
2023/06/26 06:09:42;;;;;;;6.57;2.38;;;;;;;;;;21009270;28;20045;-69
2023/06/26 06:19:43;;;;;;;6.32;3.38;;;;;;;;;;21007305;28;20040;-69
2023/06/26 06:29:44;;;;;;;6.32;2.40;;;;;;;;;;21009069;28;20056;-69
2023/06/26 06:39:45;;;;;;;8.68;2.53;;;;;;;;;;21005668;28;20095;-70
2023/06/26 06:49:46;;;;;;;6.65;2.80;;;;;;;;;;21004763;28;20044;-69
2023/06/26 06:59:48;;;;;;;7.88;2.88;;;;;;;;;;21004597;28;20037;-69
2023/06/26 07:09:49;;;;;;;5.70;2.42;;;;;;;;;;21002849;28;20082;-69
2023/06/26 07:19:50;;;;;;;4.28;2.30;;;;;;;;;;21002798;28;20053;-70
2023/06/26 07:29:51;;;;;;;4.28;2.45;;;;;;;;;;21003036;28;20044;-69
2023/06/26 07:39:53;;;;;;;4.32;2.30;;;;;;;;;;21000420;28;20057;-72
2023/06/26 07:49:54;;;;;;;9.48;2.70;;;;;;;;;;21000917;28;20553;-70
2023/06/26 07:59:55;;;;;;;4.15;2.75;;;;;;;;;;20999074;28;20048;-70
2023/06/26 08:09:56;;;;;;;5.78;2.97;;;;;;;;;;20999361;28;20052;-69
2023/06/26 08:19:57;;;;;;;6.13;1.98;;;;;;;;;;20998713;28;20036;-71
2023/06/26 08:29:58;;;;;;;4.68;2.25;;;;;;;;;;20998202;28;20049;-69
2023/06/26 08:40:00;;;;;;;5.07;1.88;;;;;;;;;;20997404;28;20041;-69
2023/06/26 08:50:04;;;;;;;3.25;2.10;;;;;;;;;;20997656;28;20119;-70
2023/06/26 09:00:08;;;;;;;6.95;2.33;;;;;;;;;;20996782;28;20070;-72
2023/06/26 09:10:10;;;;;;;4.88;2.47;;;;;;;;;;20995450;28;20053;-69
2023/06/26 09:20:12;;;;;;;4.03;2.53;;;;;;;;;;20994719;28;20128;-68
2023/06/26 09:30:17;;;;;;;4.80;1.98;;;;;;;;;;20998595;28;20059;-69
2023/06/26 09:40:18;;;;;;;4.47;2.15;;;;;;;;;;21010547;28;20079;-68
2023/06/26 09:50:23;;;;;;;5.72;2.05;;;;;;;;;;21010937;28;20374;-69
2023/06/26 10:00:24;;;;;;;3.40;2.00;;;;;;;;;;21010546;28;20059;-69
2023/06/26 10:10:25;;;;;;;4.53;2.22;;;;;;;;;;21009912;28;20041;-69
2023/06/26 10:20:27;;;;;;;8.52;2.20;;;;;;;;;;21007553;28;20047;-68
2023/06/26 10:30:34;;;;;;;5.13;2.70;;;;;;;;;;21007813;28;20128;-69
2023/06/26 10:40:51;;;;;;;8.68;2.67;;;;;;;;;;21005753;28;20491;-68
2023/06/26 10:50:54;;;;;;;6.80;2.78;;;;;;;;;;21006437;28;20054;-69
2023/06/26 11:01:14;;;;;;;4.07;2.63;;;;;;;;;;21004757;28;20067;-68
2023/06/26 11:11:16;;;;;;;7.63;2.65;;;;;;;;;;21004841;28;20066;-69
2023/06/26 11:21:22;;;;;;;3.97;2.22;;;;;;;;;;21003541;28;20052;-68
2023/06/26 11:31:30;;;;;;;4.07;2.22;;;;;;;;;;21002643;28;20063;-69
2023/06/26 11:41:32;;;;;;;8.05;3.20;;;;;;;;;;21002143;28;20059;-69
2023/06/26 11:51:33;;;;;;;6.53;2.55;;;;;;;;;;21000601;28;20041;-68
2023/06/26 12:01:35;;;;;;;4.55;2.67;;;;;;;;;;20998154;28;20050;-70
2023/06/26 12:11:37;;;;;;;5.40;3.67;;;;;;;;;;20998996;28;20433;-69
2023/06/26 12:21:41;;;;;;;4.57;3.20;;;;;;;;;;20998724;28;20045;-68
2023/06/26 12:31:43;;;;;;;6.38;3.50;;;;;;;;;;20997462;28;20052;-68
2023/06/26 12:41:48;;;;;;;11.35;3.63;;;;;;;;;;20997477;28;20125;-69
2023/06/26 12:51:49;;;;;;;6.45;3.35;;;;;;;;;;20996945;28;20371;-69
2023/06/26 13:01:50;;;;;;;7.30;4.13;;;;;;;;;;20996075;28;20113;-69
2023/06/26 13:11:54;;;;;;;7.53;5.15;;;;;;;;;;20993676;28;20049;-69
2023/06/26 13:21:56;;;;;;;7.28;3.70;;;;;;;;;;20995101;28;20085;-68
2023/06/26 13:31:57;;;;;;;6.60;3.63;;;;;;;;;;20996119;28;20501;-69
2023/06/26 13:41:58;;;;;;;6.55;3.45;;;;;;;;;;20995577;28;20482;-69
2023/06/26 13:51:59;;;;;;;7.18;4.55;;;;;;;;;;20993813;28;20044;-69
2023/06/26 14:02:00;;;;;;;5.47;3.22;;;;;;;;;;20994735;28;20041;-70
2023/06/26 14:12:02;;;;;;;11.18;3.42;;;;;;;;;;20992697;28;20052;-69
2023/06/26 14:22:03;;;;;;;9.70;5.20;;;;;;;;;;21005161;28;20044;-69
2023/06/26 14:32:04;;;;;;;7.45;3.88;;;;;;;;;;21006350;28;20052;-69
2023/06/26 14:42:05;;;;;;;11.00;5.25;;;;;;;;;;21007007;28;20044;-69
2023/06/26 14:52:07;;;;;;;10.35;5.80;;;;;;;;;;21005020;28;20044;-69
2023/06/26 15:02:08;;;;;;;6.10;3.92;;;;;;;;;;21004243;28;20087;-69
2023/06/26 15:12:09;;;;;;;4.85;3.10;;;;;;;;;;21002171;28;20113;-69
2023/06/26 15:22:10;;;;;;;7.82;3.67;;;;;;;;;;21004099;28;20040;-69
2023/06/26 15:32:11;;;;;;;4.50;3.10;;;;;;;;;;21001677;28;20057;-69
2023/06/26 15:42:12;;;;;;;7.40;3.10;;;;;;;;;;21002898;28;20037;-69
2023/06/26 15:52:13;;;;;;;6.80;3.58;;;;;;;;;;21001285;28;20044;-69
2023/06/26 16:02:17;;;;;;;;;;;;;;;;;;20998986;28;20128;-69
2023/06/26 16:12:18;;;;;;;9.30;3.28;;;;;;;;;;20997313;28;20399;-69
2023/06/26 16:22:21;;;;;;;3.60;2.45;;;;;;;;;;20996498;28;20049;-70
2023/06/26 16:32:22;;;;;;;4.60;2.08;;;;;;;;;;20997049;28;20559;-70
2023/06/26 16:42:23;;;;;;;5.97;2.20;;;;;;;;;;20995177;28;20056;-69
2023/06/26 16:52:24;;;;;;;3.50;1.67;;;;;;;;;;20997252;28;20098;-68
2023/06/26 17:02:25;;;;;;;6.60;3.15;;;;;;;;;;20996495;28;20051;-68
2023/06/26 17:12:26;;;;;;;6.97;3.20;;;;;;;;;;20996544;28;20037;-69
2023/06/26 17:22:27;;;;;;;8.30;3.15;;;;;;;;;;20995047;28;20044;-69
2023/06/26 17:32:29;;;;;;;5.07;3.63;;;;;;;;;;20993003;28;20081;-68
2023/06/26 17:42:30;;;;;;;4.22;3.42;;;;;;;;;;20995340;28;20537;-70
2023/06/26 17:52:31;;;;;;;9.07;3.85;;;;;;;;;;20999016;28;20040;-68
2023/06/26 18:02:32;;;;;;;6.32;3.60;;;;;;;;;;21008471;28;20128;-68
2023/06/26 18:12:33;;;;;;;5.55;4.45;;;;;;;;;;21007879;28;20044;-69
2023/06/26 18:22:34;;;;;;;5.95;4.15;;;;;;;;;;21007363;28;20129;-69
2023/06/26 18:32:35;;;;;;;5.70;3.13;;;;;;;;;;21057409;28;20135;-69
2023/06/26 18:42:36;;;;;;;6.95;4.40;;;;;;;;;;21089032;28;20036;-69
2023/06/26 18:52:37;;;;;;;4.95;3.88;;;;;;;;;;21088602;28;20058;-70
2023/06/26 19:02:39;;;;;;;7.40;3.97;;;;;;;;;;21086922;28;20131;-70
2023/06/26 19:12:40;;;;;;;6.63;4.47;;;;;;;;;;21087985;28;20039;-69
2023/06/26 19:22:41;;;;;;;7.70;5.20;;;;;;;;;;21087231;28;20069;-69
2023/06/26 19:32:42;;;;;;;6.88;3.95;;;;;;;;;;21085284;28;20052;-70
2023/06/26 19:42:43;;;;;;;6.57;3.97;;;;;;;;;;21084664;28;20409;-69
2023/06/26 19:52:44;;;;;;;7.43;4.43;;;;;;;;;;21083299;28;20052;-68
2023/06/26 20:02:45;;;;;;;4.72;4.10;;;;;;;;;;21083228;28;20496;-69
2023/06/26 20:12:47;;;;;;;5.57;3.95;;;;;;;;;;21082100;28;20043;-68
2023/06/26 20:22:48;;;;;;;6.80;4.68;;;;;;;;;;21081966;28;20048;-68
2023/06/26 20:32:49;;;;;;;11.52;4.97;;;;;;;;;;21080277;28;20052;-68
2023/06/26 20:42:50;;;;;;;6.53;5.10;;;;;;;;;;21080551;28;20044;-68
2023/06/26 20:52:52;;;;;;;12.82;6.00;;;;;;;;;;21078981;28;20048;-69
2023/06/26 21:02:53;;;;;;;7.80;5.72;;;;;;;;;;21077971;28;20108;-68
2023/06/26 21:12:54;;;;;;;10.40;6.57;;;;;;;;;;21076779;28;20052;-68
2023/06/26 21:22:55;;;;;;;7.78;5.93;;;;;;;;;;21078786;28;20076;-69
2023/06/26 21:32:56;;;;;;;8.13;6.47;;;;;;;;;;21092604;28;20178;-69
2023/06/26 21:42:58;;;;;;;9.30;5.60;;;;;;;;;;21094281;28;20048;-68
2023/06/26 21:52:59;;;;;;;8.60;4.65;;;;;;;;;;21094663;28;20485;-68
2023/06/26 22:03:00;;;;;;;14.52;3.85;;;;;;;;;;21093759;28;20512;-68
2023/06/26 22:13:01;;;;;;;7.93;4.20;;;;;;;;;;21093367;28;20546;-69
2023/06/26 22:23:02;;;;;;;9.98;3.88;;;;;;;;;;21090855;28;20118;-70
2023/06/26 22:33:03;;;;;;;9.63;4.65;;;;;;;;;;21091250;28;20044;-68
2023/06/26 22:43:07;;;;;;;10.25;4.35;;;;;;;;;;21091125;28;20097;-68
2023/06/26 22:53:08;;;;;;;8.90;4.10;;;;;;;;;;21090354;28;20079;-69
2023/06/26 23:03:09;;;;;;;8.02;4.57;;;;;;;;;;21090037;28;20439;-69
2023/06/26 23:13:10;;;;;;;11.18;4.97;;;;;;;;;;21089167;28;20047;-68
2023/06/26 23:23:12;;;;;;;6.05;3.92;;;;;;;;;;21088271;28;20099;-68
2023/06/26 23:33:14;;;;;;;10.55;4.35;;;;;;;;;;21085990;28;20058;-68
2023/06/26 23:43:16;;;;;;;9.35;4.13;;;;;;;;;;21086578;28;20104;-68
2023/06/26 23:53:17;;;;;;;6.45;3.88;;;;;;;;;;21084098;28;20044;-68
